Terminal Aerodrome Forecast
Issued by NWS

Home | Current Version | Previous Version | Graphics & Text | Print | Product List | Glossary On
Versions: 1 2 3 4 5 6 7 8 9 10 11 12 13 14 15 16 17 18 19
000
FTUS43 KICT 200500
TAFHUT
TAF
KHUT 200520Z 2006/2106 14005KT P6SM SCT070
     FM201100 00000KT P6SM SKC
     FM201400 02009KT P6SM SKC=

USA.gov is the U.S. government's official web portal to all federal, state and local government web resources and services.